sensor_id;sensor_type;location;lat;lon;timestamp;pressure;altitude;pressure_sealevel;temperature;humidity
86224;BME280;76887;48.558;12.170;2024-03-02T21:14:59;95885.34;;;23.89;37.16
86224;BME280;76887;48.558;12.170;2024-03-02T21:23:00;95896.00;;;20.53;35.62
86224;BME280;76887;48.558;12.170;2024-03-02T21:25:27;95891.91;;;18.23;39.59
86224;BME280;76887;48.558;12.170;2024-03-02T21:28:00;95880.97;;;16.19;43.52
86224;BME280;76887;48.558;12.170;2024-03-02T21:30:26;95885.38;;;14.56;46.85
86224;BME280;76887;48.558;12.170;2024-03-02T21:32:57;95890.63;;;13.24;50.33
86224;BME280;76887;48.558;12.170;2024-03-02T21:35:24;95882.59;;;12.21;53.15
86224;BME280;76887;48.558;12.170;2024-03-02T21:37:50;95885.97;;;11.43;55.23
86224;BME280;76887;48.558;12.170;2024-03-02T21:40:17;95892.56;;;10.74;57.03
86224;BME280;76887;48.558;12.170;2024-03-02T21:42:45;95891.72;;;10.17;58.66
86224;BME280;76887;48.558;12.170;2024-03-02T21:45:12;95892.69;;;9.67;60.62
86224;BME280;76887;48.558;12.170;2024-03-02T21:47:39;95889.19;;;9.28;61.96
86224;BME280;76887;48.558;12.170;2024-03-02T21:50:06;95884.28;;;8.95;63.47
86224;BME280;76887;48.558;12.170;2024-03-02T21:52:33;95881.53;;;8.66;64.10
86224;BME280;76887;48.558;12.170;2024-03-02T21:55:00;95876.50;;;8.43;65.41
86224;BME280;76887;48.558;12.170;2024-03-02T21:57:26;95880.50;;;8.26;66.09
86224;BME280;76887;48.558;12.170;2024-03-02T21:59:53;95873.22;;;8.09;66.48
86224;BME280;76887;48.558;12.170;2024-03-02T22:02:19;95876.28;;;7.93;67.17
86224;BME280;76887;48.558;12.170;2024-03-02T22:04:49;95884.47;;;7.79;67.82
86224;BME280;76887;48.558;12.170;2024-03-02T22:07:16;95879.38;;;7.66;68.34
86224;BME280;76887;48.558;12.170;2024-03-02T22:09:42;95872.53;;;7.54;68.74
86224;BME280;76887;48.558;12.170;2024-03-02T22:12:09;95872.72;;;7.41;69.24
86224;BME280;76887;48.558;12.170;2024-03-02T22:14:38;95872.88;;;7.29;69.45
86224;BME280;76887;48.558;12.170;2024-03-02T22:17:04;95869.31;;;7.19;70.18
86224;BME280;76887;48.558;12.170;2024-03-02T22:19:31;95867.31;;;7.11;70.50
86224;BME280;76887;48.558;12.170;2024-03-02T22:21:57;95872.31;;;7.03;71.27
86224;BME280;76887;48.558;12.170;2024-03-02T22:24:24;95867.47;;;6.98;71.41
86224;BME280;76887;48.558;12.170;2024-03-02T22:26:51;95861.06;;;6.91;71.51
86224;BME280;76887;48.558;12.170;2024-03-02T22:29:18;95865.84;;;6.86;71.77
86224;BME280;76887;48.558;12.170;2024-03-02T22:31:44;95862.63;;;6.82;71.89
86224;BME280;76887;48.558;12.170;2024-03-02T22:34:11;95861.34;;;6.77;72.12
86224;BME280;76887;48.558;12.170;2024-03-02T22:36:38;95858.13;;;6.73;72.23
86224;BME280;76887;48.558;12.170;2024-03-02T22:39:04;95851.59;;;6.68;72.57
86224;BME280;76887;48.558;12.170;2024-03-02T22:41:31;95852.78;;;6.64;72.34
86224;BME280;76887;48.558;12.170;2024-03-02T22:43:58;95857.44;;;6.60;72.79
86224;BME280;76887;48.558;12.170;2024-03-02T22:46:24;95855.28;;;6.54;73.21
86224;BME280;76887;48.558;12.170;2024-03-02T22:48:51;95853.03;;;6.49;72.89
86224;BME280;76887;48.558;12.170;2024-03-02T22:51:25;95852.31;;;6.47;73.61
86224;BME280;76887;48.558;12.170;2024-03-02T22:53:52;95851.03;;;6.42;73.50
86224;BME280;76887;48.558;12.170;2024-03-02T22:56:19;95853.25;;;6.35;73.52
86224;BME280;76887;48.558;12.170;2024-03-02T22:58:47;95856.22;;;6.31;73.60
86224;BME280;76887;48.558;12.170;2024-03-02T23:01:13;95854.81;;;6.26;74.42
86224;BME280;76887;48.558;12.170;2024-03-02T23:03:41;95853.38;;;6.22;73.75
86224;BME280;76887;48.558;12.170;2024-03-02T23:06:08;95855.25;;;6.20;73.86
86224;BME280;76887;48.558;12.170;2024-03-02T23:08:35;95847.66;;;6.17;74.10
86224;BME280;76887;48.558;12.170;2024-03-02T23:11:03;95847.78;;;6.16;73.95
86224;BME280;76887;48.558;12.170;2024-03-02T23:13:30;95835.81;;;6.13;74.38
86224;BME280;76887;48.558;12.170;2024-03-02T23:15:57;95839.47;;;6.11;74.66
86224;BME280;76887;48.558;12.170;2024-03-02T23:18:27;95844.94;;;6.08;74.40
86224;BME280;76887;48.558;12.170;2024-03-02T23:20:53;95845.19;;;6.05;74.46
86224;BME280;76887;48.558;12.170;2024-03-02T23:23:20;95849.91;;;5.99;74.46
86224;BME280;76887;48.558;12.170;2024-03-02T23:25:47;95852.63;;;5.98;74.87
86224;BME280;76887;48.558;12.170;2024-03-02T23:28:14;95840.66;;;5.95;74.91
86224;BME280;76887;48.558;12.170;2024-03-02T23:30:41;95848.56;;;5.94;74.49
86224;BME280;76887;48.558;12.170;2024-03-02T23:33:08;95847.75;;;5.93;75.04
86224;BME280;76887;48.558;12.170;2024-03-02T23:35:35;95850.59;;;5.90;75.24
86224;BME280;76887;48.558;12.170;2024-03-02T23:38:02;95846.41;;;5.88;75.14
86224;BME280;76887;48.558;12.170;2024-03-02T23:40:29;95845.72;;;5.86;74.86
86224;BME280;76887;48.558;12.170;2024-03-02T23:43:04;95845.09;;;5.82;75.02
86224;BME280;76887;48.558;12.170;2024-03-02T23:45:31;95847.94;;;5.79;74.93
86224;BME280;76887;48.558;12.170;2024-03-02T23:47:58;95832.53;;;5.76;75.06
86224;BME280;76887;48.558;12.170;2024-03-02T23:50:25;95835.34;;;5.73;74.75
86224;BME280;76887;48.558;12.170;2024-03-02T23:52:51;95840.81;;;5.70;74.72
86224;BME280;76887;48.558;12.170;2024-03-02T23:55:18;95834.88;;;5.68;74.45
86224;BME280;76887;48.558;12.170;2024-03-02T23:57:45;95834.13;;;5.66;74.81
